Nord Organiser — 3FOF6 — position and weather

sailwx.info

Track history (hours):
 
Tides and Currents Weather Stations Pressure Air Temp Water Temp Dewpoint Dewpoint Depression Visibility Wind Speed Wind Dir Waves Ship Positions

Nord Organiser

Last reported at 2017-Nov-08 20:02 UTC. Time now 2017-Nov-19 21:44 UTC.
Position N 36°12' E 014°42'.
Warning: this ship's position is 11 days out of date.

Length 182 m; draft 10.5 m.

Type: Tanker. MMSI: 370686000.

Date/timePositionNaut miles runAvg speedWind from/ knotsBaromVisibWave heightAir tempDewpointWater temp
2017-Nov-08 20:02N 36°12' E 014°42'112.4
2017-Nov-08 19:59N 36°13' E 014°41'612.5
2017-Nov-08 19:30N 36°14' E 014°34'612.8
2017-Nov-08 19:00N 36°16' E 014°26'612.8
2017-Nov-08 18:30N 36°19' E 014°19'612.9
2017-Nov-08 18:00N 36°21' E 014°11'612.6
2017-Nov-08 17:31N 36°24' E 014°04'712.6
2017-Nov-08 16:56N 36°26' E 013°56'  
2017-Nov-05 10:05N 35°60' W 005°17'214.9
2017-Nov-05 09:57N 35°60' W 005°19'26210.8
2017-Nov-04 09:38N 38°11' W 010°03'212.1
2017-Nov-04 09:30N 38°13' W 010°03'612.3
2017-Nov-04 09:00N 38°19' W 010°05'612.6
2017-Nov-04 08:30N 38°25' W 010°07'714.5
2017-Nov-04 08:00N 38°32' W 010°09'713.1
2017-Nov-04 07:30N 38°38' W 010°11'611.8
2017-Nov-04 07:00N 38°44' W 010°12'611.9
2017-Nov-04 06:30N 38°50' W 010°12'612.9
2017-Nov-04 06:00N 38°56' W 010°12'713.1
2017-Nov-04 05:30N 39°03' W 010°12'612.1
2017-Nov-04 05:00N 39°09' W 010°12'612.3
2017-Nov-04 04:30N 39°15' W 010°12'53312.0
2017-Nov-02 08:05N 47°46' W 006°44'113.9
2017-Nov-02 07:59N 47°48' W 006°43'1013.7
2017-Nov-02 07:14N 47°56' W 006°35'513.7
2017-Nov-02 06:53N 48°01' W 006°32'1813.6
2017-Nov-02 05:33N 48°17' W 006°19'213.6
2017-Nov-02 05:26N 48°18' W 006°18'1112.9
2017-Nov-02 04:35N 48°27' W 006°10'212.7
2017-Nov-02 04:27N 48°29' W 006°08'1712.2
2017-Nov-02 03:03N 48°44' W 005°55'111.5
2017-Nov-02 02:59N 48°44' W 005°55'811.8
2017-Nov-02 02:20N 48°51' W 005°49'1911.2
2017-Nov-02 00:39N 49°04' W 005°28'211.7
2017-Nov-02 00:28N 49°06' W 005°26'611.7
2017-Nov-01 23:59N 49°09' W 005°19'612.1
2017-Nov-01 23:28N 49°13' W 005°12'1412.7
2017-Nov-01 22:21N 49°22' W 004°55'513.4
2017-Nov-01 22:00N 49°24' W 004°48'713.7
2017-Nov-01 21:30N 49°27' W 004°39'713.8
2017-Nov-01 21:00N 49°31' W 004°30'713.7
2017-Nov-01 20:30N 49°34' W 004°20'913.6
2017-Nov-01 19:52N 49°38' W 004°09'513.3
2017-Nov-01 19:30N 49°41' W 004°02'613.0
2017-Nov-01 19:00N 49°44' W 003°54'612.5
2017-Nov-01 18:30N 49°47' W 003°45'20612.5
2017-Nov-01 02:00N 50°56' E 001°20'713.4
2017-Nov-01 01:31N 51°01' E 001°26'612.4
2017-Nov-01 01:00N 51°06' E 001°33'611.7
2017-Nov-01 00:30N 51°10' E 001°40'611.3
2017-Nov-01 00:00N 51°14' E 001°46'611.1
2017-Oct-31 23:30N 51°19' E 001°50'510.9
2017-Oct-31 23:00N 51°24' E 001°54'510.6
2017-Oct-31 22:31N 51°28' E 001°59'510.9
2017-Oct-31 22:00N 51°32' E 002°05'611.0
2017-Oct-31 21:27N 51°36' E 002°12'511.0
2017-Oct-31 20:59N 51°39' E 002°18'611.5
2017-Oct-31 20:27N 51°44' E 002°25'611.9
2017-Oct-31 19:56N 51°48' E 002°32'512.4
2017-Oct-31 19:30N 51°53' E 002°37'712.3
2017-Oct-31 18:56N 51°58' E 002°45'612.1
2017-Oct-31 18:28N 51°60' E 002°53'612.2
2017-Oct-31 18:01N 52°01' E 003°02'612.2
2017-Oct-31 17:29N 52°02' E 003°12'612.2
2017-Oct-31 17:00N 52°03' E 003°22'612.0
2017-Oct-31 16:30N 52°03' E 003°32'612.0
2017-Oct-31 16:00N 52°03' E 003°41'611.4
2017-Oct-31 15:30N 52°03' E 003°51'3 6.8
2017-Oct-31 15:00N 52°02' E 003°56'510.0
2017-Oct-31 14:30N 51°60' E 004°03'5 9.1
2017-Oct-31 14:00N 51°57' E 004°10'5 9.3
2017-Oct-31 13:31N 51°55' E 004°15'2 5.0
2017-Oct-31 13:00N 51°53' E 004°18'0 0.7
2017-Oct-31 12:30N 51°53' E 004°18'0 0.0
2017-Oct-31 11:58N 51°53' E 004°18'0 0.0
2017-Oct-31 11:28N 51°53' E 004°18'0 0.0
2017-Oct-31 10:58N 51°53' E 004°18'0 0.0
2017-Oct-31 10:28N 51°53' E 004°18'0 0.0
2017-Oct-31 09:58N 51°53' E 004°18'0 0.0
2017-Oct-31 09:28N 51°53' E 004°18'0 0.0
2017-Oct-31 08:58N 51°53' E 004°18'0 0.0
2017-Oct-31 08:28N 51°53' E 004°18'0 0.0
2017-Oct-31 07:58N 51°53' E 004°18'0 0.0
2017-Oct-31 07:28N 51°53' E 004°18'0 0.0
2017-Oct-31 06:58N 51°53' E 004°18'0 0.0
2017-Oct-31 06:28N 51°53' E 004°18'0 0.0
2017-Oct-31 05:58N 51°53' E 004°18'  
Track history (hours):
 
Tides and Currents Weather Stations Pressure Air Temp Water Temp Dewpoint Dewpoint Depression Visibility Wind Speed Wind Dir Waves Ship Positions

Nord Organiser

Last reported at 2017-Nov-08 20:02 UTC. Time now 2017-Nov-19 21:44 UTC.
Position N 36°12' E 014°42'.
Warning: this ship's position is 11 days out of date.

Length 182 m; draft 10.5 m.

Type: Tanker. MMSI: 370686000.

Date/timePositionNaut miles runAvg speedWind from/ knotsBaromVisibWave heightAir tempDewpointWater temp
2017-Nov-08 20:02N 36°12' E 014°42'112.4
2017-Nov-08 19:59N 36°13' E 014°41'612.5
2017-Nov-08 19:30N 36°14' E 014°34'612.8
2017-Nov-08 19:00N 36°16' E 014°26'612.8
2017-Nov-08 18:30N 36°19' E 014°19'612.9
2017-Nov-08 18:00N 36°21' E 014°11'612.6
2017-Nov-08 17:31N 36°24' E 014°04'712.6
2017-Nov-08 16:56N 36°26' E 013°56'  
2017-Nov-05 10:05N 35°60' W 005°17'214.9
2017-Nov-05 09:57N 35°60' W 005°19'26210.8
2017-Nov-04 09:38N 38°11' W 010°03'212.1
2017-Nov-04 09:30N 38°13' W 010°03'612.3
2017-Nov-04 09:00N 38°19' W 010°05'612.6
2017-Nov-04 08:30N 38°25' W 010°07'714.5
2017-Nov-04 08:00N 38°32' W 010°09'713.1
2017-Nov-04 07:30N 38°38' W 010°11'611.8
2017-Nov-04 07:00N 38°44' W 010°12'611.9
2017-Nov-04 06:30N 38°50' W 010°12'612.9
2017-Nov-04 06:00N 38°56' W 010°12'713.1
2017-Nov-04 05:30N 39°03' W 010°12'612.1
2017-Nov-04 05:00N 39°09' W 010°12'612.3
2017-Nov-04 04:30N 39°15' W 010°12'53312.0
2017-Nov-02 08:05N 47°46' W 006°44'113.9
2017-Nov-02 07:59N 47°48' W 006°43'1013.7
2017-Nov-02 07:14N 47°56' W 006°35'513.7
2017-Nov-02 06:53N 48°01' W 006°32'1813.6
2017-Nov-02 05:33N 48°17' W 006°19'213.6
2017-Nov-02 05:26N 48°18' W 006°18'1112.9
2017-Nov-02 04:35N 48°27' W 006°10'212.7
2017-Nov-02 04:27N 48°29' W 006°08'1712.2
2017-Nov-02 03:03N 48°44' W 005°55'111.5
2017-Nov-02 02:59N 48°44' W 005°55'811.8
2017-Nov-02 02:20N 48°51' W 005°49'1911.2
2017-Nov-02 00:39N 49°04' W 005°28'211.7
2017-Nov-02 00:28N 49°06' W 005°26'611.7
2017-Nov-01 23:59N 49°09' W 005°19'612.1
2017-Nov-01 23:28N 49°13' W 005°12'1412.7
2017-Nov-01 22:21N 49°22' W 004°55'513.4
2017-Nov-01 22:00N 49°24' W 004°48'713.7
2017-Nov-01 21:30N 49°27' W 004°39'713.8
2017-Nov-01 21:00N 49°31' W 004°30'713.7
2017-Nov-01 20:30N 49°34' W 004°20'913.6
2017-Nov-01 19:52N 49°38' W 004°09'513.3
2017-Nov-01 19:30N 49°41' W 004°02'613.0
2017-Nov-01 19:00N 49°44' W 003°54'612.5
2017-Nov-01 18:30N 49°47' W 003°45'20612.5
2017-Nov-01 02:00N 50°56' E 001°20'713.4
2017-Nov-01 01:31N 51°01' E 001°26'612.4
2017-Nov-01 01:00N 51°06' E 001°33'611.7
2017-Nov-01 00:30N 51°10' E 001°40'611.3
2017-Nov-01 00:00N 51°14' E 001°46'611.1
2017-Oct-31 23:30N 51°19' E 001°50'510.9
2017-Oct-31 23:00N 51°24' E 001°54'510.6
2017-Oct-31 22:31N 51°28' E 001°59'510.9
2017-Oct-31 22:00N 51°32' E 002°05'611.0
2017-Oct-31 21:27N 51°36' E 002°12'511.0
2017-Oct-31 20:59N 51°39' E 002°18'611.5
2017-Oct-31 20:27N 51°44' E 002°25'611.9
2017-Oct-31 19:56N 51°48' E 002°32'512.4
2017-Oct-31 19:30N 51°53' E 002°37'712.3
2017-Oct-31 18:56N 51°58' E 002°45'612.1
2017-Oct-31 18:28N 51°60' E 002°53'612.2
2017-Oct-31 18:01N 52°01' E 003°02'612.2
2017-Oct-31 17:29N 52°02' E 003°12'612.2
2017-Oct-31 17:00N 52°03' E 003°22'612.0
2017-Oct-31 16:30N 52°03' E 003°32'612.0
2017-Oct-31 16:00N 52°03' E 003°41'611.4
2017-Oct-31 15:30N 52°03' E 003°51'3 6.8
2017-Oct-31 15:00N 52°02' E 003°56'510.0
2017-Oct-31 14:30N 51°60' E 004°03'5 9.1
2017-Oct-31 14:00N 51°57' E 004°10'5 9.3
2017-Oct-31 13:31N 51°55' E 004°15'2 5.0
2017-Oct-31 13:00N 51°53' E 004°18'0 0.7
2017-Oct-31 12:30N 51°53' E 004°18'0 0.0
2017-Oct-31 11:58N 51°53' E 004°18'0 0.0
2017-Oct-31 11:28N 51°53' E 004°18'0 0.0
2017-Oct-31 10:58N 51°53' E 004°18'0 0.0
2017-Oct-31 10:28N 51°53' E 004°18'0 0.0
2017-Oct-31 09:58N 51°53' E 004°18'0 0.0
2017-Oct-31 09:28N 51°53' E 004°18'0 0.0
2017-Oct-31 08:58N 51°53' E 004°18'0 0.0
2017-Oct-31 08:28N 51°53' E 004°18'0 0.0
2017-Oct-31 07:58N 51°53' E 004°18'0 0.0
2017-Oct-31 07:28N 51°53' E 004°18'0 0.0
2017-Oct-31 06:58N 51°53' E 004°18'0 0.0
2017-Oct-31 06:28N 51°53' E 004°18'0 0.0
2017-Oct-31 05:58N 51°53' E 004°18'  

Dump ship's entire track history